sensor_id;sensor_type;location;lat;lon;timestamp;P1;durP1;ratioP1;P2;durP2;ratioP2
33826;SDS011;20128;45.582;5.298;2023-06-22T00:00:43;16.55;;;5.05;;
33826;SDS011;20128;45.582;5.298;2023-06-22T00:03:09;14.57;;;5.18;;
33826;SDS011;20128;45.582;5.298;2023-06-22T00:05:35;15.18;;;5.03;;
33826;SDS011;20128;45.582;5.298;2023-06-22T00:08:04;20.25;;;6.32;;
33826;SDS011;20128;45.582;5.298;2023-06-22T00:10:30;22.23;;;5.82;;
33826;SDS011;20128;45.582;5.298;2023-06-22T00:12:56;16.05;;;5.28;;
33826;SDS011;20128;45.582;5.298;2023-06-22T00:15:22;16.73;;;5.90;;
33826;SDS011;20128;45.582;5.298;2023-06-22T00:17:49;16.50;;;5.60;;
33826;SDS011;20128;45.582;5.298;2023-06-22T00:20:15;14.20;;;5.57;;
33826;SDS011;20128;45.582;5.298;2023-06-22T00:22:41;27.60;;;6.13;;
33826;SDS011;20128;45.582;5.298;2023-06-22T00:25:08;16.73;;;5.75;;
33826;SDS011;20128;45.582;5.298;2023-06-22T00:27:34;15.10;;;4.97;;
33826;SDS011;20128;45.582;5.298;2023-06-22T00:30:00;13.07;;;4.90;;
33826;SDS011;20128;45.582;5.298;2023-06-22T00:32:26;14.13;;;5.80;;
33826;SDS011;20128;45.582;5.298;2023-06-22T00:34:51;11.50;;;5.18;;
33826;SDS011;20128;45.582;5.298;2023-06-22T00:37:17;17.65;;;5.57;;
33826;SDS011;20128;45.582;5.298;2023-06-22T00:39:43;20.27;;;6.40;;
33826;SDS011;20128;45.582;5.298;2023-06-22T00:42:09;18.27;;;6.25;;
33826;SDS011;20128;45.582;5.298;2023-06-22T00:44:35;19.38;;;5.47;;
33826;SDS011;20128;45.582;5.298;2023-06-22T00:47:01;14.73;;;5.82;;
33826;SDS011;20128;45.582;5.298;2023-06-22T00:49:28;14.60;;;6.03;;
33826;SDS011;20128;45.582;5.298;2023-06-22T00:51:54;16.17;;;5.50;;
33826;SDS011;20128;45.582;5.298;2023-06-22T00:54:21;23.75;;;5.82;;
33826;SDS011;20128;45.582;5.298;2023-06-22T00:56:58;11.75;;;5.35;;
33826;SDS011;20128;45.582;5.298;2023-06-22T00:59:24;17.75;;;6.15;;
33826;SDS011;20128;45.582;5.298;2023-06-22T01:01:51;19.30;;;5.68;;
33826;SDS011;20128;45.582;5.298;2023-06-22T01:04:17;17.45;;;5.63;;
33826;SDS011;20128;45.582;5.298;2023-06-22T01:07:02;16.40;;;6.13;;
33826;SDS011;20128;45.582;5.298;2023-06-22T01:09:36;23.40;;;6.28;;
33826;SDS011;20128;45.582;5.298;2023-06-22T01:12:14;19.80;;;6.63;;
33826;SDS011;20128;45.582;5.298;2023-06-22T01:14:43;14.55;;;5.85;;
33826;SDS011;20128;45.582;5.298;2023-06-22T01:17:23;17.70;;;7.13;;
33826;SDS011;20128;45.582;5.298;2023-06-22T01:19:50;22.88;;;7.25;;
33826;SDS011;20128;45.582;5.298;2023-06-22T01:22:21;19.40;;;5.93;;
33826;SDS011;20128;45.582;5.298;2023-06-22T01:27:53;18.08;;;6.07;;
33826;SDS011;20128;45.582;5.298;2023-06-22T01:30:26;25.15;;;6.45;;
33826;SDS011;20128;45.582;5.298;2023-06-22T01:32:54;22.92;;;5.85;;
33826;SDS011;20128;45.582;5.298;2023-06-22T01:35:23;21.55;;;5.85;;
33826;SDS011;20128;45.582;5.298;2023-06-22T01:37:50;23.02;;;7.40;;
33826;SDS011;20128;45.582;5.298;2023-06-22T01:40:16;26.73;;;7.47;;
33826;SDS011;20128;45.582;5.298;2023-06-22T01:42:43;28.15;;;7.32;;
33826;SDS011;20128;45.582;5.298;2023-06-22T01:45:10;19.98;;;5.47;;
33826;SDS011;20128;45.582;5.298;2023-06-22T01:47:36;17.25;;;4.93;;
33826;SDS011;20128;45.582;5.298;2023-06-22T01:50:03;17.30;;;5.20;;
33826;SDS011;20128;45.582;5.298;2023-06-22T01:52:29;19.15;;;5.40;;
33826;SDS011;20128;45.582;5.298;2023-06-22T01:54:55;20.88;;;5.47;;
33826;SDS011;20128;45.582;5.298;2023-06-22T01:57:22;22.30;;;5.68;;
33826;SDS011;20128;45.582;5.298;2023-06-22T01:59:53;17.42;;;5.55;;
33826;SDS011;20128;45.582;5.298;2023-06-22T02:03:06;19.80;;;6.15;;
33826;SDS011;20128;45.582;5.298;2023-06-22T02:05:33;16.42;;;5.28;;
33826;SDS011;20128;45.582;5.298;2023-06-22T02:08:03;15.52;;;5.50;;
33826;SDS011;20128;45.582;5.298;2023-06-22T02:10:34;21.17;;;5.45;;
33826;SDS011;20128;45.582;5.298;2023-06-22T02:13:03;23.88;;;5.95;;
33826;SDS011;20128;45.582;5.298;2023-06-22T02:15:31;17.95;;;6.05;;
33826;SDS011;20128;45.582;5.298;2023-06-22T02:17:57;20.63;;;6.53;;
33826;SDS011;20128;45.582;5.298;2023-06-22T02:20:24;25.90;;;6.70;;
33826;SDS011;20128;45.582;5.298;2023-06-22T02:22:50;18.15;;;5.78;;
33826;SDS011;20128;45.582;5.298;2023-06-22T02:25:16;22.17;;;6.20;;
33826;SDS011;20128;45.582;5.298;2023-06-22T02:27:41;20.73;;;6.22;;
33826;SDS011;20128;45.582;5.298;2023-06-22T02:30:10;15.98;;;5.40;;
33826;SDS011;20128;45.582;5.298;2023-06-22T02:32:35;15.75;;;5.30;;
33826;SDS011;20128;45.582;5.298;2023-06-22T02:35:01;19.52;;;6.15;;
33826;SDS011;20128;45.582;5.298;2023-06-22T02:37:31;19.60;;;5.43;;
33826;SDS011;20128;45.582;5.298;2023-06-22T02:39:57;16.05;;;5.57;;
33826;SDS011;20128;45.582;5.298;2023-06-22T02:42:23;21.40;;;5.07;;
33826;SDS011;20128;45.582;5.298;2023-06-22T02:44:48;23.40;;;6.30;;
33826;SDS011;20128;45.582;5.298;2023-06-22T02:47:15;22.17;;;6.53;;
33826;SDS011;20128;45.582;5.298;2023-06-22T02:49:41;15.85;;;5.43;;
33826;SDS011;20128;45.582;5.298;2023-06-22T02:52:07;18.25;;;5.35;;
33826;SDS011;20128;45.582;5.298;2023-06-22T02:54:32;25.88;;;6.90;;
33826;SDS011;20128;45.582;5.298;2023-06-22T02:56:58;16.95;;;6.10;;
33826;SDS011;20128;45.582;5.298;2023-06-22T02:59:27;19.50;;;6.15;;
33826;SDS011;20128;45.582;5.298;2023-06-22T03:01:53;15.65;;;5.07;;
33826;SDS011;20128;45.582;5.298;2023-06-22T03:04:19;17.63;;;5.88;;
33826;SDS011;20128;45.582;5.298;2023-06-22T03:06:45;18.92;;;5.70;;
33826;SDS011;20128;45.582;5.298;2023-06-22T03:09:15;20.48;;;6.65;;
33826;SDS011;20128;45.582;5.298;2023-06-22T03:11:42;25.45;;;6.40;;
33826;SDS011;20128;45.582;5.298;2023-06-22T03:14:07;29.88;;;7.50;;
33826;SDS011;20128;45.582;5.298;2023-06-22T03:16:33;17.05;;;5.85;;
33826;SDS011;20128;45.582;5.298;2023-06-22T03:18:59;23.20;;;6.22;;
33826;SDS011;20128;45.582;5.298;2023-06-22T03:21:27;22.75;;;6.15;;
33826;SDS011;20128;45.582;5.298;2023-06-22T03:23:54;22.73;;;5.68;;
33826;SDS011;20128;45.582;5.298;2023-06-22T03:26:20;23.40;;;6.40;;
33826;SDS011;20128;45.582;5.298;2023-06-22T03:28:45;21.25;;;6.20;;
33826;SDS011;20128;45.582;5.298;2023-06-22T03:31:11;25.17;;;6.38;;
33826;SDS011;20128;45.582;5.298;2023-06-22T03:33:37;31.98;;;6.28;;
33826;SDS011;20128;45.582;5.298;2023-06-22T03:36:03;26.83;;;7.55;;
33826;SDS011;20128;45.582;5.298;2023-06-22T03:38:28;17.13;;;6.13;;
33826;SDS011;20128;45.582;5.298;2023-06-22T03:40:54;26.13;;;7.47;;
33826;SDS011;20128;45.582;5.298;2023-06-22T03:43:20;31.00;;;7.90;;
33826;SDS011;20128;45.582;5.298;2023-06-22T03:45:45;25.23;;;7.40;;
33826;SDS011;20128;45.582;5.298;2023-06-22T03:48:11;25.33;;;6.57;;
33826;SDS011;20128;45.582;5.298;2023-06-22T03:50:37;25.25;;;6.57;;
33826;SDS011;20128;45.582;5.298;2023-06-22T03:53:03;24.40;;;6.25;;
33826;SDS011;20128;45.582;5.298;2023-06-22T03:55:29;30.15;;;7.72;;
33826;SDS011;20128;45.582;5.298;2023-06-22T03:57:55;25.20;;;7.30;;
33826;SDS011;20128;45.582;5.298;2023-06-22T04:00:22;29.98;;;6.50;;
33826;SDS011;20128;45.582;5.298;2023-06-22T04:02:48;30.38;;;7.10;;
33826;SDS011;20128;45.582;5.298;2023-06-22T04:05:14;35.60;;;7.10;;
33826;SDS011;20128;45.582;5.298;2023-06-22T04:07:42;33.00;;;6.78;;
33826;SDS011;20128;45.582;5.298;2023-06-22T04:10:08;29.33;;;6.85;;
33826;SDS011;20128;45.582;5.298;2023-06-22T04:12:34;30.95;;;6.82;;
33826;SDS011;20128;45.582;5.298;2023-06-22T04:14:59;29.40;;;6.82;;
33826;SDS011;20128;45.582;5.298;2023-06-22T04:17:25;24.13;;;6.88;;
33826;SDS011;20128;45.582;5.298;2023-06-22T04:19:51;22.67;;;6.85;;
33826;SDS011;20128;45.582;5.298;2023-06-22T04:22:16;19.52;;;6.05;;
33826;SDS011;20128;45.582;5.298;2023-06-22T04:24:42;23.10;;;7.00;;
33826;SDS011;20128;45.582;5.298;2023-06-22T04:27:08;20.70;;;5.88;;
33826;SDS011;20128;45.582;5.298;2023-06-22T04:29:34;33.30;;;7.00;;
33826;SDS011;20128;45.582;5.298;2023-06-22T04:32:00;23.83;;;6.90;;
33826;SDS011;20128;45.582;5.298;2023-06-22T04:34:30;20.15;;;5.68;;
33826;SDS011;20128;45.582;5.298;2023-06-22T04:36:55;23.77;;;6.47;;
33826;SDS011;20128;45.582;5.298;2023-06-22T04:39:21;19.50;;;7.25;;
33826;SDS011;20128;45.582;5.298;2023-06-22T04:41:47;37.10;;;7.68;;
33826;SDS011;20128;45.582;5.298;2023-06-22T04:44:13;23.15;;;6.40;;
33826;SDS011;20128;45.582;5.298;2023-06-22T04:46:48;29.30;;;6.90;;
33826;SDS011;20128;45.582;5.298;2023-06-22T04:49:18;23.83;;;6.97;;
33826;SDS011;20128;45.582;5.298;2023-06-22T04:51:45;23.08;;;6.57;;
33826;SDS011;20128;45.582;5.298;2023-06-22T04:54:11;21.10;;;7.35;;
33826;SDS011;20128;45.582;5.298;2023-06-22T04:56:36;26.13;;;7.97;;
33826;SDS011;20128;45.582;5.298;2023-06-22T04:59:02;25.58;;;7.85;;
33826;SDS011;20128;45.582;5.298;2023-06-22T05:01:28;25.05;;;7.45;;
33826;SDS011;20128;45.582;5.298;2023-06-22T05:03:56;21.75;;;7.68;;
33826;SDS011;20128;45.582;5.298;2023-06-22T05:06:22;31.45;;;9.75;;
33826;SDS011;20128;45.582;5.298;2023-06-22T05:08:55;19.63;;;7.70;;
33826;SDS011;20128;45.582;5.298;2023-06-22T05:11:23;16.98;;;6.75;;
33826;SDS011;20128;45.582;5.298;2023-06-22T05:13:51;32.78;;;7.00;;
33826;SDS011;20128;45.582;5.298;2023-06-22T05:16:17;27.60;;;8.00;;
33826;SDS011;20128;45.582;5.298;2023-06-22T05:18:42;25.90;;;8.27;;
33826;SDS011;20128;45.582;5.298;2023-06-22T05:21:08;38.30;;;8.52;;
33826;SDS011;20128;45.582;5.298;2023-06-22T05:23:34;32.38;;;8.15;;
33826;SDS011;20128;45.582;5.298;2023-06-22T05:26:00;30.63;;;7.97;;
33826;SDS011;20128;45.582;5.298;2023-06-22T05:28:25;31.75;;;9.07;;
33826;SDS011;20128;45.582;5.298;2023-06-22T05:30:51;27.90;;;9.35;;
33826;SDS011;20128;45.582;5.298;2023-06-22T05:33:17;27.13;;;8.27;;
33826;SDS011;20128;45.582;5.298;2023-06-22T05:35:42;36.65;;;9.48;;
33826;SDS011;20128;45.582;5.298;2023-06-22T05:38:08;37.05;;;8.25;;
33826;SDS011;20128;45.582;5.298;2023-06-22T05:40:34;36.17;;;8.38;;
33826;SDS011;20128;45.582;5.298;2023-06-22T05:42:59;26.17;;;7.63;;
33826;SDS011;20128;45.582;5.298;2023-06-22T05:45:26;18.52;;;6.53;;
33826;SDS011;20128;45.582;5.298;2023-06-22T05:47:52;27.02;;;8.32;;
33826;SDS011;20128;45.582;5.298;2023-06-22T05:50:18;24.10;;;7.68;;
33826;SDS011;20128;45.582;5.298;2023-06-22T05:52:43;28.35;;;8.27;;
33826;SDS011;20128;45.582;5.298;2023-06-22T05:55:09;23.55;;;7.03;;
33826;SDS011;20128;45.582;5.298;2023-06-22T05:57:35;28.52;;;9.15;;
33826;SDS011;20128;45.582;5.298;2023-06-22T06:00:00;28.48;;;8.10;;
33826;SDS011;20128;45.582;5.298;2023-06-22T06:02:26;22.92;;;6.95;;
33826;SDS011;20128;45.582;5.298;2023-06-22T06:04:51;32.30;;;7.95;;
33826;SDS011;20128;45.582;5.298;2023-06-22T06:07:17;26.08;;;7.57;;
33826;SDS011;20128;45.582;5.298;2023-06-22T06:09:43;27.90;;;8.02;;
33826;SDS011;20128;45.582;5.298;2023-06-22T06:12:09;26.80;;;8.52;;
33826;SDS011;20128;45.582;5.298;2023-06-22T06:14:35;28.48;;;7.45;;
33826;SDS011;20128;45.582;5.298;2023-06-22T06:17:00;20.48;;;6.53;;
33826;SDS011;20128;45.582;5.298;2023-06-22T06:19:26;19.55;;;7.28;;
33826;SDS011;20128;45.582;5.298;2023-06-22T06:21:51;24.35;;;7.30;;
33826;SDS011;20128;45.582;5.298;2023-06-22T06:24:17;22.60;;;7.78;;
33826;SDS011;20128;45.582;5.298;2023-06-22T06:26:43;29.02;;;7.90;;
33826;SDS011;20128;45.582;5.298;2023-06-22T06:29:08;34.08;;;8.55;;
33826;SDS011;20128;45.582;5.298;2023-06-22T06:31:34;30.67;;;7.65;;
33826;SDS011;20128;45.582;5.298;2023-06-22T06:34:00;32.17;;;8.90;;
33826;SDS011;20128;45.582;5.298;2023-06-22T06:36:25;33.33;;;9.27;;
33826;SDS011;20128;45.582;5.298;2023-06-22T06:38:51;37.28;;;9.95;;
33826;SDS011;20128;45.582;5.298;2023-06-22T06:41:17;38.08;;;10.85;;
33826;SDS011;20128;45.582;5.298;2023-06-22T06:43:42;30.40;;;10.88;;
33826;SDS011;20128;45.582;5.298;2023-06-22T06:46:08;32.67;;;11.23;;
33826;SDS011;20128;45.582;5.298;2023-06-22T06:48:34;34.72;;;11.55;;
33826;SDS011;20128;45.582;5.298;2023-06-22T06:51:00;36.13;;;8.95;;
33826;SDS011;20128;45.582;5.298;2023-06-22T06:53:26;23.98;;;9.73;;
33826;SDS011;20128;45.582;5.298;2023-06-22T06:55:53;29.45;;;11.40;;
33826;SDS011;20128;45.582;5.298;2023-06-22T06:58:19;31.05;;;11.52;;
33826;SDS011;20128;45.582;5.298;2023-06-22T07:00:44;31.98;;;10.52;;
33826;SDS011;20128;45.582;5.298;2023-06-22T07:03:10;28.73;;;10.70;;
33826;SDS011;20128;45.582;5.298;2023-06-22T07:05:36;32.40;;;10.25;;
33826;SDS011;20128;45.582;5.298;2023-06-22T07:08:01;34.53;;;10.13;;
33826;SDS011;20128;45.582;5.298;2023-06-22T07:10:27;31.70;;;10.70;;
33826;SDS011;20128;45.582;5.298;2023-06-22T07:12:54;34.00;;;11.20;;
33826;SDS011;20128;45.582;5.298;2023-06-22T07:15:19;35.05;;;10.57;;
33826;SDS011;20128;45.582;5.298;2023-06-22T07:17:45;34.40;;;9.65;;
33826;SDS011;20128;45.582;5.298;2023-06-22T07:20:11;32.17;;;10.93;;
33826;SDS011;20128;45.582;5.298;2023-06-22T07:22:40;29.10;;;9.88;;
33826;SDS011;20128;45.582;5.298;2023-06-22T07:25:10;35.70;;;10.45;;
33826;SDS011;20128;45.582;5.298;2023-06-22T07:27:39;38.03;;;9.82;;
33826;SDS011;20128;45.582;5.298;2023-06-22T07:30:09;30.98;;;9.75;;
33826;SDS011;20128;45.582;5.298;2023-06-22T07:32:35;34.35;;;9.10;;
33826;SDS011;20128;45.582;5.298;2023-06-22T07:35:01;28.10;;;10.00;;
33826;SDS011;20128;45.582;5.298;2023-06-22T07:37:30;28.25;;;9.63;;
33826;SDS011;20128;45.582;5.298;2023-06-22T07:39:57;22.40;;;8.52;;
33826;SDS011;20128;45.582;5.298;2023-06-22T07:42:26;24.77;;;8.82;;
33826;SDS011;20128;45.582;5.298;2023-06-22T07:44:53;34.45;;;9.30;;
33826;SDS011;20128;45.582;5.298;2023-06-22T07:47:19;28.77;;;8.60;;
33826;SDS011;20128;45.582;5.298;2023-06-22T07:49:46;31.30;;;9.57;;
33826;SDS011;20128;45.582;5.298;2023-06-22T07:52:12;31.40;;;9.45;;
33826;SDS011;20128;45.582;5.298;2023-06-22T07:54:37;34.40;;;9.07;;
33826;SDS011;20128;45.582;5.298;2023-06-22T07:57:03;27.98;;;8.23;;
33826;SDS011;20128;45.582;5.298;2023-06-22T07:59:29;26.00;;;7.63;;
33826;SDS011;20128;45.582;5.298;2023-06-22T08:01:55;30.23;;;9.48;;
33826;SDS011;20128;45.582;5.298;2023-06-22T08:04:21;27.40;;;7.88;;
33826;SDS011;20128;45.582;5.298;2023-06-22T08:06:46;31.45;;;9.20;;
33826;SDS011;20128;45.582;5.298;2023-06-22T08:09:12;32.28;;;8.30;;
33826;SDS011;20128;45.582;5.298;2023-06-22T08:11:38;28.52;;;9.68;;
33826;SDS011;20128;45.582;5.298;2023-06-22T08:14:03;26.27;;;9.23;;
33826;SDS011;20128;45.582;5.298;2023-06-22T08:16:29;25.45;;;8.25;;
33826;SDS011;20128;45.582;5.298;2023-06-22T08:18:54;31.38;;;9.27;;
33826;SDS011;20128;45.582;5.298;2023-06-22T08:21:21;24.55;;;7.97;;
33826;SDS011;20128;45.582;5.298;2023-06-22T08:23:47;24.75;;;8.30;;
33826;SDS011;20128;45.582;5.298;2023-06-22T08:26:14;26.40;;;8.38;;
33826;SDS011;20128;45.582;5.298;2023-06-22T08:28:40;30.08;;;7.93;;
33826;SDS011;20128;45.582;5.298;2023-06-22T08:31:05;25.98;;;7.57;;
33826;SDS011;20128;45.582;5.298;2023-06-22T08:33:31;30.45;;;8.98;;
33826;SDS011;20128;45.582;5.298;2023-06-22T08:35:58;23.50;;;7.78;;
33826;SDS011;20128;45.582;5.298;2023-06-22T08:38:24;31.08;;;7.60;;
33826;SDS011;20128;45.582;5.298;2023-06-22T08:40:50;22.75;;;6.78;;
33826;SDS011;20128;45.582;5.298;2023-06-22T08:43:16;24.92;;;7.53;;
33826;SDS011;20128;45.582;5.298;2023-06-22T08:45:41;21.92;;;6.70;;
33826;SDS011;20128;45.582;5.298;2023-06-22T08:48:07;22.77;;;7.82;;
33826;SDS011;20128;45.582;5.298;2023-06-22T08:50:32;24.65;;;7.30;;
33826;SDS011;20128;45.582;5.298;2023-06-22T08:52:58;21.88;;;6.68;;
33826;SDS011;20128;45.582;5.298;2023-06-22T08:55:24;28.20;;;7.07;;
33826;SDS011;20128;45.582;5.298;2023-06-22T08:57:49;17.67;;;6.50;;
33826;SDS011;20128;45.582;5.298;2023-06-22T09:00:16;16.27;;;6.65;;
33826;SDS011;20128;45.582;5.298;2023-06-22T09:02:44;25.08;;;7.82;;
33826;SDS011;20128;45.582;5.298;2023-06-22T09:05:10;25.90;;;6.85;;
33826;SDS011;20128;45.582;5.298;2023-06-22T09:07:36;21.48;;;7.05;;
33826;SDS011;20128;45.582;5.298;2023-06-22T09:10:02;25.80;;;6.78;;
33826;SDS011;20128;45.582;5.298;2023-06-22T09:12:30;22.25;;;6.07;;
33826;SDS011;20128;45.582;5.298;2023-06-22T09:14:57;17.23;;;5.97;;
33826;SDS011;20128;45.582;5.298;2023-06-22T09:17:25;31.38;;;6.88;;
33826;SDS011;20128;45.582;5.298;2023-06-22T09:19:51;18.02;;;6.28;;
33826;SDS011;20128;45.582;5.298;2023-06-22T09:22:16;25.35;;;6.43;;
33826;SDS011;20128;45.582;5.298;2023-06-22T09:24:42;21.55;;;6.45;;
33826;SDS011;20128;45.582;5.298;2023-06-22T09:27:08;26.02;;;6.60;;
33826;SDS011;20128;45.582;5.298;2023-06-22T09:29:33;24.08;;;6.35;;
33826;SDS011;20128;45.582;5.298;2023-06-22T09:31:59;22.67;;;6.15;;
33826;SDS011;20128;45.582;5.298;2023-06-22T09:34:25;21.13;;;5.80;;
33826;SDS011;20128;45.582;5.298;2023-06-22T09:36:51;21.27;;;6.38;;
33826;SDS011;20128;45.582;5.298;2023-06-22T09:39:20;27.75;;;5.85;;
33826;SDS011;20128;45.582;5.298;2023-06-22T09:41:45;27.38;;;6.68;;
33826;SDS011;20128;45.582;5.298;2023-06-22T09:44:11;23.73;;;6.30;;
33826;SDS011;20128;45.582;5.298;2023-06-22T09:46:37;26.35;;;5.75;;
33826;SDS011;20128;45.582;5.298;2023-06-22T09:49:02;21.50;;;6.32;;
33826;SDS011;20128;45.582;5.298;2023-06-22T09:51:28;20.08;;;6.43;;
33826;SDS011;20128;45.582;5.298;2023-06-22T09:53:53;18.88;;;5.70;;
33826;SDS011;20128;45.582;5.298;2023-06-22T09:56:20;26.20;;;5.93;;
33826;SDS011;20128;45.582;5.298;2023-06-22T09:58:46;25.90;;;6.70;;
33826;SDS011;20128;45.582;5.298;2023-06-22T10:01:12;21.98;;;5.43;;
33826;SDS011;20128;45.582;5.298;2023-06-22T10:03:41;14.85;;;5.22;;
33826;SDS011;20128;45.582;5.298;2023-06-22T10:06:07;23.77;;;5.80;;
33826;SDS011;20128;45.582;5.298;2023-06-22T10:08:34;19.33;;;6.50;;
33826;SDS011;20128;45.582;5.298;2023-06-22T10:11:00;28.05;;;7.55;;
33826;SDS011;20128;45.582;5.298;2023-06-22T10:13:26;21.90;;;6.28;;
33826;SDS011;20128;45.582;5.298;2023-06-22T10:15:52;19.33;;;5.57;;
33826;SDS011;20128;45.582;5.298;2023-06-22T10:18:18;26.77;;;5.80;;
33826;SDS011;20128;45.582;5.298;2023-06-22T10:20:46;25.20;;;7.35;;
33826;SDS011;20128;45.582;5.298;2023-06-22T10:23:13;24.58;;;7.13;;
33826;SDS011;20128;45.582;5.298;2023-06-22T10:25:39;40.13;;;7.60;;
33826;SDS011;20128;45.582;5.298;2023-06-22T10:28:05;23.58;;;6.22;;
33826;SDS011;20128;45.582;5.298;2023-06-22T10:30:30;27.75;;;7.15;;
33826;SDS011;20128;45.582;5.298;2023-06-22T10:32:56;25.73;;;8.00;;
33826;SDS011;20128;45.582;5.298;2023-06-22T10:35:22;31.65;;;7.20;;
33826;SDS011;20128;45.582;5.298;2023-06-22T10:37:48;23.02;;;7.10;;
33826;SDS011;20128;45.582;5.298;2023-06-22T10:40:14;23.38;;;6.93;;
33826;SDS011;20128;45.582;5.298;2023-06-22T10:42:41;24.77;;;7.70;;
33826;SDS011;20128;45.582;5.298;2023-06-22T10:45:07;23.98;;;6.70;;
33826;SDS011;20128;45.582;5.298;2023-06-22T10:47:33;26.65;;;7.15;;
33826;SDS011;20128;45.582;5.298;2023-06-22T10:49:59;23.17;;;7.15;;
33826;SDS011;20128;45.582;5.298;2023-06-22T10:52:25;18.55;;;6.82;;
33826;SDS011;20128;45.582;5.298;2023-06-22T10:54:50;23.05;;;6.70;;
33826;SDS011;20128;45.582;5.298;2023-06-22T10:57:17;24.05;;;6.50;;
33826;SDS011;20128;45.582;5.298;2023-06-22T10:59:43;23.55;;;6.70;;
33826;SDS011;20128;45.582;5.298;2023-06-22T11:02:08;22.45;;;6.10;;
33826;SDS011;20128;45.582;5.298;2023-06-22T11:04:34;14.05;;;5.93;;
33826;SDS011;20128;45.582;5.298;2023-06-22T11:07:00;26.73;;;7.10;;
33826;SDS011;20128;45.582;5.298;2023-06-22T11:09:26;28.42;;;6.32;;
33826;SDS011;20128;45.582;5.298;2023-06-22T11:11:52;21.80;;;6.38;;
33826;SDS011;20128;45.582;5.298;2023-06-22T11:14:21;21.42;;;6.78;;
33826;SDS011;20128;45.582;5.298;2023-06-22T11:16:47;27.52;;;7.57;;
33826;SDS011;20128;45.582;5.298;2023-06-22T11:19:13;24.40;;;7.20;;
33826;SDS011;20128;45.582;5.298;2023-06-22T11:21:38;34.45;;;8.35;;
33826;SDS011;20128;45.582;5.298;2023-06-22T11:24:04;26.83;;;7.70;;
33826;SDS011;20128;45.582;5.298;2023-06-22T11:26:30;25.63;;;8.80;;
33826;SDS011;20128;45.582;5.298;2023-06-22T11:28:56;28.67;;;7.15;;
33826;SDS011;20128;45.582;5.298;2023-06-22T11:31:23;25.08;;;6.88;;
33826;SDS011;20128;45.582;5.298;2023-06-22T11:33:49;19.77;;;6.47;;
33826;SDS011;20128;45.582;5.298;2023-06-22T11:36:15;24.30;;;7.03;;
33826;SDS011;20128;45.582;5.298;2023-06-22T11:38:41;25.13;;;7.40;;
33826;SDS011;20128;45.582;5.298;2023-06-22T11:41:07;26.17;;;8.30;;
33826;SDS011;20128;45.582;5.298;2023-06-22T11:43:34;25.90;;;7.50;;
33826;SDS011;20128;45.582;5.298;2023-06-22T11:46:01;27.63;;;8.55;;
33826;SDS011;20128;45.582;5.298;2023-06-22T11:48:28;34.08;;;9.05;;
33826;SDS011;20128;45.582;5.298;2023-06-22T11:50:53;34.83;;;9.35;;
33826;SDS011;20128;45.582;5.298;2023-06-22T11:53:20;21.60;;;8.38;;
33826;SDS011;20128;45.582;5.298;2023-06-22T11:55:46;34.15;;;9.15;;
33826;SDS011;20128;45.582;5.298;2023-06-22T11:58:12;31.65;;;7.25;;
33826;SDS011;20128;45.582;5.298;2023-06-22T12:00:38;19.10;;;5.18;;
33826;SDS011;20128;45.582;5.298;2023-06-22T12:03:04;12.73;;;4.47;;
33826;SDS011;20128;45.582;5.298;2023-06-22T12:05:29;11.57;;;4.85;;
33826;SDS011;20128;45.582;5.298;2023-06-22T12:07:55;13.55;;;4.65;;
33826;SDS011;20128;45.582;5.298;2023-06-22T12:10:22;7.95;;;3.80;;
33826;SDS011;20128;45.582;5.298;2023-06-22T12:12:48;7.28;;;3.17;;
33826;SDS011;20128;45.582;5.298;2023-06-22T12:15:13;10.75;;;3.05;;
33826;SDS011;20128;45.582;5.298;2023-06-22T12:17:39;12.63;;;3.40;;
33826;SDS011;20128;45.582;5.298;2023-06-22T12:20:05;12.85;;;4.22;;
33826;SDS011;20128;45.582;5.298;2023-06-22T12:22:32;12.95;;;3.33;;
33826;SDS011;20128;45.582;5.298;2023-06-22T12:24:58;8.80;;;3.35;;
33826;SDS011;20128;45.582;5.298;2023-06-22T12:27:25;10.82;;;3.53;;
33826;SDS011;20128;45.582;5.298;2023-06-22T12:29:51;10.88;;;3.33;;
33826;SDS011;20128;45.582;5.298;2023-06-22T12:32:17;10.48;;;3.28;;
33826;SDS011;20128;45.582;5.298;2023-06-22T12:34:42;12.38;;;3.53;;
33826;SDS011;20128;45.582;5.298;2023-06-22T12:37:09;13.73;;;3.85;;
33826;SDS011;20128;45.582;5.298;2023-06-22T12:39:35;9.07;;;3.20;;
33826;SDS011;20128;45.582;5.298;2023-06-22T12:42:00;9.20;;;3.45;;
33826;SDS011;20128;45.582;5.298;2023-06-22T12:44:26;8.93;;;3.50;;
33826;SDS011;20128;45.582;5.298;2023-06-22T12:46:52;9.55;;;3.55;;
33826;SDS011;20128;45.582;5.298;2023-06-22T12:49:17;7.15;;;3.90;;
33826;SDS011;20128;45.582;5.298;2023-06-22T12:51:43;8.23;;;3.45;;
33826;SDS011;20128;45.582;5.298;2023-06-22T12:54:10;10.68;;;3.22;;
33826;SDS011;20128;45.582;5.298;2023-06-22T12:56:36;8.98;;;3.20;;
33826;SDS011;20128;45.582;5.298;2023-06-22T12:59:03;6.95;;;3.20;;
33826;SDS011;20128;45.582;5.298;2023-06-22T13:01:29;11.07;;;4.70;;
33826;SDS011;20128;45.582;5.298;2023-06-22T13:03:56;6.18;;;3.60;;
33826;SDS011;20128;45.582;5.298;2023-06-22T13:06:23;17.45;;;5.10;;
33826;SDS011;20128;45.582;5.298;2023-06-22T13:08:48;17.13;;;4.50;;
33826;SDS011;20128;45.582;5.298;2023-06-22T13:11:14;8.40;;;3.78;;
33826;SDS011;20128;45.582;5.298;2023-06-22T13:13:39;12.23;;;3.63;;
33826;SDS011;20128;45.582;5.298;2023-06-22T13:16:06;7.88;;;3.63;;
33826;SDS011;20128;45.582;5.298;2023-06-22T13:18:32;12.13;;;4.13;;
33826;SDS011;20128;45.582;5.298;2023-06-22T13:21:00;9.63;;;3.65;;
33826;SDS011;20128;45.582;5.298;2023-06-22T13:23:26;18.20;;;5.13;;
33826;SDS011;20128;45.582;5.298;2023-06-22T13:25:52;13.68;;;4.97;;
33826;SDS011;20128;45.582;5.298;2023-06-22T13:28:18;22.08;;;5.22;;
33826;SDS011;20128;45.582;5.298;2023-06-22T13:30:43;17.08;;;5.05;;
33826;SDS011;20128;45.582;5.298;2023-06-22T13:33:12;24.27;;;6.80;;
33826;SDS011;20128;45.582;5.298;2023-06-22T13:35:40;18.23;;;5.38;;
33826;SDS011;20128;45.582;5.298;2023-06-22T13:38:09;11.13;;;4.07;;
33826;SDS011;20128;45.582;5.298;2023-06-22T13:40:35;17.10;;;4.20;;
33826;SDS011;20128;45.582;5.298;2023-06-22T13:43:03;14.20;;;4.25;;
33826;SDS011;20128;45.582;5.298;2023-06-22T13:45:31;16.23;;;4.50;;
33826;SDS011;20128;45.582;5.298;2023-06-22T13:47:57;16.63;;;5.00;;
33826;SDS011;20128;45.582;5.298;2023-06-22T13:50:23;16.17;;;5.20;;
33826;SDS011;20128;45.582;5.298;2023-06-22T13:52:48;17.95;;;5.28;;
33826;SDS011;20128;45.582;5.298;2023-06-22T13:55:14;27.10;;;6.32;;
33826;SDS011;20128;45.582;5.298;2023-06-22T13:57:40;24.98;;;5.97;;
33826;SDS011;20128;45.582;5.298;2023-06-22T14:00:08;12.65;;;4.40;;
33826;SDS011;20128;45.582;5.298;2023-06-22T14:02:34;13.82;;;3.80;;
33826;SDS011;20128;45.582;5.298;2023-06-22T14:05:00;16.70;;;4.22;;
33826;SDS011;20128;45.582;5.298;2023-06-22T14:07:27;17.27;;;2.97;;
33826;SDS011;20128;45.582;5.298;2023-06-22T14:09:53;12.90;;;3.28;;
33826;SDS011;20128;45.582;5.298;2023-06-22T14:12:18;8.63;;;2.78;;
33826;SDS011;20128;45.582;5.298;2023-06-22T14:14:44;12.65;;;3.67;;
33826;SDS011;20128;45.582;5.298;2023-06-22T14:17:10;13.27;;;3.67;;
33826;SDS011;20128;45.582;5.298;2023-06-22T14:19:36;11.48;;;2.80;;
33826;SDS011;20128;45.582;5.298;2023-06-22T14:22:02;10.05;;;2.30;;
33826;SDS011;20128;45.582;5.298;2023-06-22T14:24:28;7.18;;;2.25;;
33826;SDS011;20128;45.582;5.298;2023-06-22T14:26:56;8.80;;;2.38;;
33826;SDS011;20128;45.582;5.298;2023-06-22T14:29:22;9.05;;;2.25;;
33826;SDS011;20128;45.582;5.298;2023-06-22T14:31:48;9.98;;;2.75;;
33826;SDS011;20128;45.582;5.298;2023-06-22T14:34:14;7.20;;;2.63;;